createdAt,value
2023-05-29T00:00:31.973Z,24.44
2023-05-29T00:01:32.021Z,24.44
2023-05-29T00:02:32.124Z,24.44
2023-05-29T00:03:32.194Z,24.43
2023-05-29T00:04:32.176Z,24.42
2023-05-29T00:05:32.178Z,24.43
2023-05-29T00:06:32.216Z,24.42
2023-05-29T00:07:32.246Z,24.42
2023-05-29T00:08:32.298Z,24.41
2023-05-29T00:09:32.322Z,24.42
2023-05-29T00:10:32.357Z,24.42
2023-05-29T00:11:32.406Z,24.42
2023-05-29T00:12:32.368Z,24.41
2023-05-29T00:13:32.413Z,24.40
2023-05-29T00:14:32.344Z,24.40
2023-05-29T00:15:32.300Z,24.40
2023-05-29T00:16:32.341Z,24.40
2023-05-29T00:17:32.294Z,24.39
2023-05-29T00:18:32.265Z,24.39
2023-05-29T00:19:32.234Z,24.39
2023-05-29T00:20:32.240Z,24.39
2023-05-29T00:21:32.178Z,24.39
2023-05-29T00:22:32.159Z,24.39
2023-05-29T00:23:32.176Z,24.38
2023-05-29T00:24:32.227Z,24.38
2023-05-29T00:25:32.243Z,24.38
2023-05-29T00:26:32.269Z,24.38
2023-05-29T00:27:32.314Z,24.37
2023-05-29T00:28:32.360Z,24.38
2023-05-29T00:29:32.389Z,24.37
2023-05-29T00:30:32.421Z,24.37
2023-05-29T00:31:32.529Z,24.37
2023-05-29T00:32:32.560Z,24.36
2023-05-29T00:33:32.583Z,24.37
2023-05-29T00:34:32.579Z,24.37
2023-05-29T00:35:32.624Z,24.36
2023-05-29T00:36:32.659Z,24.37
2023-05-29T00:37:32.757Z,24.37
2023-05-29T00:38:32.687Z,24.36
2023-05-29T00:39:32.687Z,24.36
2023-05-29T00:40:32.662Z,24.36
2023-05-29T00:41:32.652Z,24.37
2023-05-29T00:42:32.614Z,24.35
2023-05-29T00:43:32.637Z,24.36
2023-05-29T00:44:32.590Z,24.35
2023-05-29T00:45:32.587Z,24.35
2023-05-29T00:46:32.697Z,24.35
2023-05-29T00:47:32.587Z,24.35
2023-05-29T00:48:32.555Z,24.35
2023-05-29T00:49:32.557Z,24.35
2023-05-29T00:50:32.572Z,24.34
2023-05-29T00:51:32.627Z,24.34
2023-05-29T00:52:32.681Z,24.34
2023-05-29T00:53:32.722Z,24.34
2023-05-29T00:54:32.763Z,24.34
2023-05-29T00:55:32.814Z,24.34
2023-05-29T00:56:32.850Z,24.33
2023-05-29T00:57:32.884Z,24.34
2023-05-29T00:58:32.932Z,24.33
2023-05-29T00:59:33.000Z,24.35
2023-05-29T01:00:33.024Z,24.35
2023-05-29T01:01:33.015Z,24.33
2023-05-29T01:02:33.093Z,24.33
2023-05-29T01:03:33.031Z,24.33
2023-05-29T01:04:32.935Z,24.33
2023-05-29T01:05:32.929Z,24.33
2023-05-29T01:06:32.901Z,24.33
2023-05-29T01:07:32.896Z,24.33
2023-05-29T01:08:32.870Z,24.33
2023-05-29T01:09:32.841Z,24.32
2023-05-29T01:10:32.838Z,24.32
2023-05-29T01:11:32.805Z,24.32
2023-05-29T01:12:32.801Z,24.32
2023-05-29T01:13:32.776Z,24.32
2023-05-29T01:14:32.788Z,24.32
2023-05-29T01:15:32.765Z,24.31
2023-05-29T01:16:32.778Z,24.31
2023-05-29T01:17:32.715Z,24.31
2023-05-29T01:18:32.704Z,24.31
2023-05-29T01:19:32.674Z,24.31
2023-05-29T01:20:32.665Z,24.31
2023-05-29T01:21:32.706Z,24.31
2023-05-29T01:22:32.747Z,24.31
2023-05-29T01:23:32.797Z,24.30
2023-05-29T01:24:32.856Z,24.30
2023-05-29T01:25:32.901Z,24.30
2023-05-29T01:26:32.961Z,24.30
2023-05-29T01:27:32.993Z,24.29
2023-05-29T01:28:33.046Z,24.29
2023-05-29T01:29:33.045Z,24.29
2023-05-29T01:30:33.089Z,24.29
2023-05-29T01:31:33.156Z,24.29
2023-05-29T01:32:33.204Z,24.29
2023-05-29T01:33:33.215Z,24.29
2023-05-29T01:34:33.248Z,24.28
2023-05-29T01:35:33.301Z,24.29
2023-05-29T01:36:33.330Z,24.28
2023-05-29T01:37:33.425Z,24.28
2023-05-29T01:38:33.399Z,24.28
2023-05-29T01:39:33.371Z,24.29
2023-05-29T01:40:33.325Z,24.28
2023-05-29T01:41:33.297Z,24.28
2023-05-29T01:42:33.272Z,24.28
2023-05-29T01:43:33.249Z,24.28
2023-05-29T01:44:33.229Z,24.27
2023-05-29T01:45:33.216Z,24.27
2023-05-29T01:46:33.175Z,24.27
2023-05-29T01:47:33.169Z,24.27
2023-05-29T01:48:33.136Z,24.26
2023-05-29T01:49:33.111Z,24.27
2023-05-29T01:50:33.089Z,24.27
2023-05-29T01:51:33.071Z,24.27
2023-05-29T01:52:33.061Z,24.27
2023-05-29T01:53:33.052Z,24.27
2023-05-29T01:54:33.086Z,24.26
2023-05-29T01:55:33.146Z,24.27
2023-05-29T01:56:33.122Z,24.27
2023-05-29T01:57:33.095Z,24.26
2023-05-29T01:58:33.082Z,24.27
2023-05-29T01:59:33.048Z,24.26
2023-05-29T02:00:33.036Z,24.26
2023-05-29T02:01:33.140Z,24.26
2023-05-29T02:02:33.013Z,24.26
2023-05-29T02:03:33.002Z,24.25
2023-05-29T02:04:33.091Z,24.25
2023-05-29T02:05:32.926Z,24.25
2023-05-29T02:06:32.892Z,24.24
2023-05-29T02:07:32.861Z,24.24
2023-05-29T02:08:32.856Z,24.24
2023-05-29T02:09:32.824Z,24.25
2023-05-29T02:10:32.827Z,24.24
2023-05-29T02:11:32.803Z,24.25
2023-05-29T02:12:32.769Z,24.24
2023-05-29T02:13:32.763Z,24.24
2023-05-29T02:14:32.734Z,24.24
2023-05-29T02:15:32.712Z,24.24
2023-05-29T02:16:32.737Z,24.24
2023-05-29T02:17:32.751Z,24.24
2023-05-29T02:18:32.804Z,24.23
2023-05-29T02:19:32.844Z,24.25
2023-05-29T02:20:32.960Z,24.24
2023-05-29T02:21:32.960Z,24.24
2023-05-29T02:22:33.004Z,24.24
2023-05-29T02:23:33.055Z,24.24
2023-05-29T02:24:33.029Z,24.23
2023-05-29T02:25:33.027Z,24.24
2023-05-29T02:26:33.002Z,24.23
2023-05-29T02:27:33.090Z,24.24
2023-05-29T02:28:32.975Z,24.23
2023-05-29T02:29:32.965Z,24.24
2023-05-29T02:30:32.953Z,24.23
2023-05-29T02:31:32.950Z,24.24
2023-05-29T02:32:32.933Z,24.24
2023-05-29T02:33:32.908Z,24.23
2023-05-29T02:34:32.935Z,24.23
2023-05-29T02:35:32.980Z,24.23
2023-05-29T02:36:33.023Z,24.22
2023-05-29T02:37:33.082Z,24.22
2023-05-29T02:38:33.113Z,24.22
2023-05-29T02:39:33.161Z,24.22
2023-05-29T02:40:33.206Z,24.22
2023-05-29T02:41:33.253Z,24.22
2023-05-29T02:42:33.289Z,24.22
2023-05-29T02:43:33.511Z,24.22
2023-05-29T02:44:33.382Z,24.21
2023-05-29T02:45:33.433Z,24.20
2023-05-29T02:46:33.563Z,24.21
2023-05-29T02:47:33.569Z,24.21
2023-05-29T02:48:33.592Z,24.21
2023-05-29T02:49:33.629Z,24.21
2023-05-29T02:50:33.679Z,24.21
2023-05-29T02:51:33.718Z,24.20
2023-05-29T02:52:33.777Z,24.20
2023-05-29T02:53:33.869Z,24.20
2023-05-29T02:54:33.868Z,24.20
2023-05-29T02:55:33.920Z,24.20
2023-05-29T02:56:33.989Z,24.19
2023-05-29T02:57:34.018Z,24.19
2023-05-29T02:58:34.117Z,24.19
2023-05-29T02:59:34.113Z,24.19
2023-05-29T03:00:34.174Z,24.19
2023-05-29T03:01:34.370Z,24.19
2023-05-29T03:02:34.370Z,24.20
2023-05-29T03:03:34.493Z,24.21
2023-05-29T03:04:34.372Z,24.20
2023-05-29T03:05:34.423Z,24.18
2023-05-29T03:06:34.474Z,24.18
2023-05-29T03:07:34.507Z,24.18
2023-05-29T03:08:34.563Z,24.15
2023-05-29T03:09:34.600Z,24.10
2023-05-29T03:10:34.609Z,24.03
2023-05-29T03:11:34.604Z,23.96
2023-05-29T03:12:34.600Z,23.89
2023-05-29T03:13:34.610Z,23.83
2023-05-29T03:14:34.603Z,23.77
2023-05-29T03:15:34.592Z,23.71
2023-05-29T03:16:34.691Z,23.67
2023-05-29T03:17:34.685Z,23.64
2023-05-29T03:18:34.595Z,23.59
2023-05-29T03:19:34.595Z,23.54
2023-05-29T03:20:34.739Z,23.48
2023-05-29T03:21:34.598Z,23.44
2023-05-29T03:22:34.617Z,23.41
2023-05-29T03:23:34.616Z,23.38
2023-05-29T03:24:34.625Z,23.32
2023-05-29T03:25:34.636Z,23.30
2023-05-29T03:26:34.658Z,23.27
2023-05-29T03:27:34.680Z,23.23
2023-05-29T03:28:34.712Z,23.19
2023-05-29T03:29:34.729Z,23.19
2023-05-29T03:30:34.750Z,23.18
2023-05-29T03:31:34.852Z,23.17
2023-05-29T03:32:34.820Z,23.13
2023-05-29T03:33:34.818Z,23.13
2023-05-29T03:34:34.869Z,23.10
2023-05-29T03:35:34.886Z,23.08
2023-05-29T03:36:34.903Z,23.05
2023-05-29T03:37:34.933Z,23.04
2023-05-29T03:38:34.972Z,23.04
2023-05-29T03:39:35.031Z,23.03
2023-05-29T03:40:35.037Z,23.02
2023-05-29T03:41:35.074Z,23.00
2023-05-29T03:42:35.109Z,23.01
2023-05-29T03:43:35.149Z,22.98
2023-05-29T03:44:35.185Z,22.98
2023-05-29T03:45:35.221Z,22.96
2023-05-29T03:46:35.321Z,22.91
2023-05-29T03:47:35.405Z,22.90
2023-05-29T03:48:35.360Z,22.89
2023-05-29T03:49:35.403Z,22.89
2023-05-29T03:50:35.454Z,22.90
2023-05-29T03:51:35.489Z,22.90
2023-05-29T03:52:35.532Z,22.88
2023-05-29T03:53:35.577Z,22.88
2023-05-29T03:54:35.630Z,22.86
2023-05-29T03:55:35.672Z,22.85
2023-05-29T03:56:35.712Z,22.84
2023-05-29T03:57:35.753Z,22.82
2023-05-29T03:58:35.816Z,22.82
2023-05-29T03:59:35.859Z,22.81
2023-05-29T04:00:35.899Z,22.79
2023-05-29T04:01:35.949Z,22.78
2023-05-29T04:02:36.102Z,22.77
2023-05-29T04:03:36.122Z,22.76
2023-05-29T04:04:36.174Z,22.72
2023-05-29T04:05:36.162Z,22.71
2023-05-29T04:06:36.219Z,22.69
2023-05-29T04:07:36.215Z,22.69
2023-05-29T04:08:36.219Z,22.70
2023-05-29T04:09:36.217Z,22.71
2023-05-29T04:10:36.213Z,22.69
2023-05-29T04:11:36.209Z,22.69
2023-05-29T04:12:36.226Z,22.69
2023-05-29T04:13:36.215Z,22.70
2023-05-29T04:14:36.204Z,22.67
2023-05-29T04:15:36.214Z,22.67
2023-05-29T04:16:36.252Z,22.67
2023-05-29T04:17:36.223Z,22.66
2023-05-29T04:18:36.281Z,22.65
2023-05-29T04:19:36.298Z,22.64
2023-05-29T04:20:36.407Z,22.61
2023-05-29T04:21:36.441Z,22.59
2023-05-29T04:22:36.509Z,22.58
2023-05-29T04:23:36.563Z,22.55
2023-05-29T04:24:36.607Z,22.54
2023-05-29T04:25:36.665Z,22.54
2023-05-29T04:26:36.728Z,22.53
2023-05-29T04:27:36.777Z,22.51
2023-05-29T04:28:36.854Z,22.52
2023-05-29T04:29:36.906Z,22.51
2023-05-29T04:30:37.035Z,22.50
2023-05-29T04:31:37.088Z,22.50
2023-05-29T04:32:37.108Z,22.50
2023-05-29T04:33:37.171Z,22.50
2023-05-29T04:34:37.236Z,22.49
2023-05-29T04:35:37.322Z,22.49
2023-05-29T04:36:37.365Z,22.52
2023-05-29T04:37:37.435Z,22.54
2023-05-29T04:38:37.507Z,22.53
2023-05-29T04:39:37.561Z,22.51
2023-05-29T04:40:37.748Z,22.51
2023-05-29T04:41:37.697Z,22.50
2023-05-29T04:42:37.769Z,22.47
2023-05-29T04:43:37.844Z,22.46
2023-05-29T04:44:37.909Z,22.48
2023-05-29T04:45:38.028Z,22.48
2023-05-29T04:46:38.098Z,22.46
2023-05-29T04:47:38.142Z,22.46
2023-05-29T04:48:38.202Z,22.48
2023-05-29T04:49:40.085Z,22.50
2023-05-29T04:50:38.326Z,22.51
2023-05-29T04:51:38.397Z,22.50
2023-05-29T04:52:38.412Z,22.48
2023-05-29T04:53:38.410Z,22.48
2023-05-29T04:54:38.424Z,22.48
2023-05-29T04:55:38.412Z,22.46
2023-05-29T04:56:38.418Z,22.44
2023-05-29T04:57:38.415Z,22.44
2023-05-29T04:58:38.427Z,22.42
2023-05-29T04:59:38.414Z,22.39
2023-05-29T05:00:38.430Z,22.38
2023-05-29T05:01:38.482Z,22.39
2023-05-29T05:02:38.507Z,22.38
2023-05-29T05:03:38.500Z,22.36
2023-05-29T05:04:38.472Z,22.36
2023-05-29T05:05:38.470Z,22.35
2023-05-29T05:06:38.475Z,22.36
2023-05-29T05:07:38.472Z,22.36
2023-05-29T05:08:38.488Z,22.36
2023-05-29T05:09:38.492Z,22.33
2023-05-29T05:10:38.519Z,22.32
2023-05-29T05:11:38.516Z,22.31
2023-05-29T05:12:38.544Z,22.32
2023-05-29T05:13:38.603Z,22.33
2023-05-29T05:14:38.673Z,22.32
2023-05-29T05:15:38.763Z,22.32
2023-05-29T05:16:38.891Z,22.32
2023-05-29T05:17:38.911Z,22.32
2023-05-29T05:18:38.950Z,22.32
2023-05-29T05:19:39.018Z,22.31
2023-05-29T05:20:39.070Z,22.29
2023-05-29T05:21:39.055Z,22.29
2023-05-29T05:22:39.052Z,22.30
2023-05-29T05:24:39.061Z,22.30
2023-05-29T05:25:39.063Z,22.32
2023-05-29T05:26:39.069Z,22.31
2023-05-29T05:27:39.072Z,22.30
2023-05-29T05:28:39.074Z,22.29
2023-05-29T05:29:39.077Z,22.29
2023-05-29T05:30:39.095Z,22.27
2023-05-29T05:31:39.122Z,22.27
2023-05-29T05:32:39.117Z,22.26
2023-05-29T05:33:39.133Z,22.28
2023-05-29T05:34:39.178Z,22.26
2023-05-29T05:35:39.121Z,22.25
2023-05-29T05:36:39.126Z,22.25
2023-05-29T05:37:39.138Z,22.27
2023-05-29T05:38:39.152Z,22.27
2023-05-29T05:39:39.277Z,22.28
2023-05-29T05:40:39.170Z,22.27
2023-05-29T05:41:39.151Z,22.26
2023-05-29T05:42:39.170Z,22.26
2023-05-29T05:43:39.169Z,22.23
2023-05-29T05:44:39.319Z,22.23
2023-05-29T05:45:39.209Z,22.24
2023-05-29T05:46:39.276Z,22.22
2023-05-29T05:47:39.220Z,22.23
2023-05-29T05:48:39.217Z,22.23
2023-05-29T05:49:39.233Z,22.22
2023-05-29T05:50:39.234Z,22.25
2023-05-29T05:51:39.238Z,22.24
2023-05-29T05:52:39.232Z,22.24
2023-05-29T05:53:39.239Z,22.23
2023-05-29T05:54:39.241Z,22.22
2023-05-29T05:55:39.255Z,22.22
2023-05-29T05:56:39.263Z,22.22
2023-05-29T05:57:39.263Z,22.23
2023-05-29T05:58:39.275Z,22.24
2023-05-29T05:59:39.267Z,22.26
2023-05-29T06:00:39.266Z,22.24
2023-05-29T06:01:39.270Z,22.22
2023-05-29T06:02:39.366Z,22.22
2023-05-29T06:03:39.437Z,22.22
2023-05-29T06:04:39.416Z,22.22
2023-05-29T06:05:39.378Z,22.26
2023-05-29T06:06:39.443Z,22.28
2023-05-29T06:07:39.526Z,22.30
2023-05-29T06:08:39.586Z,22.30
2023-05-29T06:09:39.664Z,22.27
2023-05-29T06:10:39.706Z,22.24
2023-05-29T06:11:39.792Z,22.24
2023-05-29T06:12:39.866Z,22.24
2023-05-29T06:13:39.951Z,22.28
2023-05-29T06:14:40.009Z,22.32
2023-05-29T06:15:40.073Z,22.38
2023-05-29T06:16:40.124Z,22.43
2023-05-29T06:17:40.211Z,22.49
2023-05-29T06:18:40.262Z,22.54
2023-05-29T06:19:40.321Z,22.60
2023-05-29T06:20:40.401Z,22.64
2023-05-29T06:21:40.427Z,22.69
2023-05-29T06:22:40.479Z,22.72
2023-05-29T06:23:40.543Z,22.76
2023-05-29T06:24:40.577Z,22.80
2023-05-29T06:25:40.617Z,22.83
2023-05-29T06:26:40.718Z,22.86
2023-05-29T06:27:40.679Z,22.89
2023-05-29T06:28:40.724Z,22.92
2023-05-29T06:29:40.760Z,22.95
2023-05-29T06:30:40.797Z,22.98
2023-05-29T06:31:40.865Z,22.99
2023-05-29T06:32:40.875Z,23.02
2023-05-29T06:33:40.901Z,23.06
2023-05-29T06:34:40.897Z,23.07
2023-05-29T06:35:40.978Z,23.10
2023-05-29T06:36:40.947Z,23.13
2023-05-29T06:37:40.961Z,23.14
2023-05-29T06:38:40.997Z,23.15
2023-05-29T06:39:41.000Z,23.19
2023-05-29T06:40:41.026Z,23.20
2023-05-29T06:41:41.047Z,23.22
2023-05-29T06:42:41.087Z,23.25
2023-05-29T06:43:42.846Z,23.26
2023-05-29T06:44:41.089Z,23.28
2023-05-29T06:45:41.065Z,23.29
2023-05-29T06:46:41.078Z,23.31
2023-05-29T06:47:41.057Z,23.31
2023-05-29T06:48:41.049Z,23.33
2023-05-29T06:49:41.024Z,23.34
2023-05-29T06:50:41.034Z,23.35
2023-05-29T06:51:41.017Z,23.36
2023-05-29T06:52:41.019Z,23.38
2023-05-29T06:53:41.018Z,23.38
2023-05-29T06:54:41.006Z,23.39
2023-05-29T06:55:42.456Z,23.40
2023-05-29T06:56:41.010Z,23.42
2023-05-29T06:57:41.012Z,23.44
2023-05-29T06:58:41.135Z,23.44
2023-05-29T06:59:41.049Z,23.45
2023-05-29T07:00:41.086Z,23.47
2023-05-29T07:01:41.099Z,23.48
2023-05-29T07:02:41.081Z,23.49
2023-05-29T07:03:41.107Z,23.51
2023-05-29T07:04:41.055Z,23.52
2023-05-29T07:05:41.048Z,23.53
2023-05-29T07:06:41.047Z,23.55
2023-05-29T07:07:41.012Z,23.55
2023-05-29T07:08:41.003Z,23.57
2023-05-29T07:09:41.005Z,23.58
2023-05-29T07:10:41.005Z,23.60
2023-05-29T07:11:40.968Z,23.62
2023-05-29T07:12:40.962Z,23.63
2023-05-29T07:13:40.940Z,23.65
2023-05-29T07:14:40.928Z,23.66
2023-05-29T07:15:40.912Z,23.68
2023-05-29T07:16:40.936Z,23.69
2023-05-29T07:17:40.946Z,23.69
2023-05-29T07:18:40.878Z,23.66
2023-05-29T07:19:40.851Z,23.64
2023-05-29T07:20:40.878Z,23.60
2023-05-29T07:21:40.836Z,23.57
2023-05-29T07:22:40.895Z,23.56
2023-05-29T07:23:40.831Z,23.55
2023-05-29T07:24:40.827Z,23.53
2023-05-29T07:25:40.826Z,23.51
2023-05-29T07:26:40.822Z,23.50
2023-05-29T07:27:40.831Z,23.49
2023-05-29T07:28:40.823Z,23.47
2023-05-29T07:29:40.820Z,23.45
2023-05-29T07:30:40.828Z,23.45
2023-05-29T07:31:40.867Z,23.44
2023-05-29T07:32:40.916Z,23.44
2023-05-29T07:33:40.818Z,23.43
2023-05-29T07:34:40.811Z,23.43
2023-05-29T07:35:40.827Z,23.43
2023-05-29T07:36:40.820Z,23.45
2023-05-29T07:37:40.836Z,23.49
2023-05-29T07:38:40.811Z,23.50
2023-05-29T07:39:40.829Z,23.50
2023-05-29T07:40:42.490Z,23.49
2023-05-29T07:41:41.812Z,23.48
2023-05-29T07:42:40.808Z,23.49
2023-05-29T07:43:40.817Z,23.51
2023-05-29T07:44:40.812Z,23.51
2023-05-29T07:45:40.821Z,23.51
2023-05-29T07:46:40.844Z,23.53
2023-05-29T07:47:40.900Z,23.55
2023-05-29T07:48:40.813Z,23.56
2023-05-29T07:49:40.801Z,23.55
2023-05-29T07:50:40.797Z,23.56
2023-05-29T07:51:40.811Z,23.55
2023-05-29T07:52:40.791Z,23.55
2023-05-29T07:53:40.800Z,23.55
2023-05-29T07:54:40.816Z,23.55
2023-05-29T07:55:40.806Z,23.55
2023-05-29T07:56:40.777Z,23.59
2023-05-29T07:57:40.773Z,23.60
2023-05-29T07:58:40.775Z,23.62
2023-05-29T07:59:40.764Z,23.64
2023-05-29T08:00:40.761Z,23.62
2023-05-29T08:01:40.773Z,23.61
2023-05-29T08:02:40.837Z,23.60
2023-05-29T08:03:40.889Z,23.62
2023-05-29T08:04:40.731Z,23.62
2023-05-29T08:05:40.731Z,23.62
2023-05-29T08:06:40.709Z,23.63
2023-05-29T08:07:40.703Z,23.65
2023-05-29T08:08:40.690Z,23.67
2023-05-29T08:09:40.688Z,23.68
2023-05-29T08:10:40.679Z,23.70
2023-05-29T08:11:40.681Z,23.71
2023-05-29T08:12:40.664Z,23.73
2023-05-29T08:13:40.663Z,23.74
2023-05-29T08:14:40.659Z,23.75
2023-05-29T08:15:40.635Z,23.74
2023-05-29T08:16:40.690Z,23.74
2023-05-29T08:17:40.875Z,23.74
2023-05-29T08:18:40.610Z,23.73
2023-05-29T08:19:40.651Z,23.74
2023-05-29T08:20:40.616Z,23.75
2023-05-29T08:21:40.583Z,23.74
2023-05-29T08:22:40.576Z,23.75
2023-05-29T08:23:40.579Z,23.77
2023-05-29T08:24:40.547Z,23.78
2023-05-29T08:25:40.549Z,23.79
2023-05-29T08:26:40.544Z,23.82
2023-05-29T08:27:40.543Z,23.83
2023-05-29T08:28:42.630Z,23.83
2023-05-29T08:29:40.568Z,23.83
2023-05-29T08:30:40.565Z,23.81
2023-05-29T08:31:40.648Z,23.81
2023-05-29T08:32:40.617Z,23.83
2023-05-29T08:33:40.563Z,23.84
2023-05-29T08:34:40.567Z,23.87
2023-05-29T08:35:40.558Z,23.88
2023-05-29T08:36:40.542Z,23.88
2023-05-29T08:37:40.540Z,23.92
2023-05-29T08:38:40.546Z,23.93
2023-05-29T08:39:40.534Z,23.94
2023-05-29T08:40:40.551Z,23.95
2023-05-29T08:41:40.515Z,23.96
2023-05-29T08:42:40.536Z,23.98
2023-05-29T08:43:40.553Z,24.00
2023-05-29T08:44:40.551Z,24.01
2023-05-29T08:45:40.579Z,24.00
2023-05-29T08:46:40.525Z,24.00
2023-05-29T08:47:40.573Z,24.00
2023-05-29T08:48:40.527Z,24.00
2023-05-29T08:49:40.523Z,24.05
2023-05-29T08:50:40.528Z,24.05
2023-05-29T08:51:40.565Z,24.04
2023-05-29T08:52:40.566Z,24.02
2023-05-29T08:53:40.604Z,24.04
2023-05-29T08:54:40.605Z,24.04
2023-05-29T08:55:40.610Z,24.06
2023-05-29T08:56:40.634Z,24.07
2023-05-29T08:57:40.644Z,24.09
2023-05-29T08:58:40.858Z,24.10
2023-05-29T08:59:40.707Z,24.11
2023-05-29T09:00:40.713Z,24.13
2023-05-29T09:01:40.793Z,24.14
2023-05-29T09:02:40.793Z,24.15
2023-05-29T09:03:40.803Z,24.15
2023-05-29T09:04:40.835Z,24.13
2023-05-29T09:05:40.894Z,24.13
2023-05-29T09:06:40.928Z,24.13
2023-05-29T09:07:40.958Z,24.14
2023-05-29T09:08:41.013Z,24.16
2023-05-29T09:09:41.039Z,24.17
2023-05-29T09:10:41.036Z,24.18
2023-05-29T09:11:41.009Z,24.20
2023-05-29T09:12:41.001Z,24.22
2023-05-29T09:13:40.968Z,24.23
2023-05-29T09:14:41.002Z,24.24
2023-05-29T09:15:40.993Z,24.27
2023-05-29T09:16:40.907Z,24.27
2023-05-29T09:17:40.909Z,24.29
2023-05-29T09:18:40.877Z,24.30
2023-05-29T09:19:40.877Z,24.32
2023-05-29T09:20:40.986Z,24.33
2023-05-29T09:21:40.949Z,24.36
2023-05-29T09:22:40.983Z,24.37
2023-05-29T09:23:41.068Z,24.39
2023-05-29T09:24:41.102Z,24.41
2023-05-29T09:25:41.164Z,24.42
2023-05-29T09:26:42.650Z,24.43
2023-05-29T09:27:41.213Z,24.45
2023-05-29T09:28:41.266Z,24.47
2023-05-29T09:29:41.297Z,24.48
2023-05-29T09:30:41.335Z,24.50
2023-05-29T09:31:41.407Z,24.51
2023-05-29T09:32:41.419Z,24.53
2023-05-29T09:33:41.445Z,24.54
2023-05-29T09:34:41.427Z,24.55
2023-05-29T09:35:41.422Z,24.56
2023-05-29T09:36:41.390Z,24.57
2023-05-29T09:37:41.359Z,24.58
2023-05-29T09:38:50.144Z,24.59
2023-05-29T09:39:42.333Z,24.60
2023-05-29T09:40:41.300Z,24.61
2023-05-29T09:41:41.286Z,24.61
2023-05-29T09:42:41.263Z,24.63
2023-05-29T09:43:41.257Z,24.63
2023-05-29T09:44:41.230Z,24.64
2023-05-29T09:45:41.211Z,24.64
2023-05-29T09:46:41.257Z,24.65
2023-05-29T09:47:41.191Z,24.67
2023-05-29T09:48:41.144Z,24.68
2023-05-29T09:49:41.130Z,24.68
2023-05-29T09:50:41.095Z,24.69
2023-05-29T09:51:41.079Z,24.69
2023-05-29T09:52:41.069Z,24.69
2023-05-29T09:53:41.040Z,24.70
2023-05-29T09:54:41.035Z,24.71
2023-05-29T09:55:41.001Z,24.71
2023-05-29T09:56:40.981Z,24.74
2023-05-29T09:57:40.973Z,24.74
2023-05-29T09:58:40.951Z,24.74
2023-05-29T09:59:40.937Z,24.76
2023-05-29T10:00:40.915Z,24.76
2023-05-29T10:01:40.901Z,24.77
2023-05-29T10:02:40.936Z,24.78
2023-05-29T10:03:41.034Z,24.79
2023-05-29T10:04:40.818Z,24.80
2023-05-29T10:05:40.797Z,24.80
2023-05-29T10:06:40.787Z,24.82
2023-05-29T10:07:40.760Z,24.83
2023-05-29T10:08:40.759Z,24.84
2023-05-29T10:09:40.797Z,24.85
2023-05-29T10:10:40.793Z,24.86
2023-05-29T10:11:40.811Z,24.86
2023-05-29T10:12:40.828Z,24.87
2023-05-29T10:13:40.847Z,24.88
2023-05-29T10:14:40.847Z,24.89
2023-05-29T10:15:40.865Z,24.90
2023-05-29T10:16:40.891Z,24.91
2023-05-29T10:17:40.956Z,24.91
2023-05-29T10:18:40.913Z,24.93
2023-05-29T10:19:40.922Z,24.93
2023-05-29T10:20:40.975Z,24.94
2023-05-29T10:21:40.943Z,24.95
2023-05-29T10:22:40.946Z,24.95
2023-05-29T10:23:40.953Z,24.96
2023-05-29T10:24:40.953Z,24.97
2023-05-29T10:25:40.949Z,24.97
2023-05-29T10:26:40.974Z,24.97
2023-05-29T10:27:40.987Z,24.98
2023-05-29T10:28:40.981Z,24.99
2023-05-29T10:29:40.976Z,24.99
2023-05-29T10:30:40.975Z,25.00
2023-05-29T10:31:41.004Z,25.01
2023-05-29T10:32:41.012Z,25.01
2023-05-29T10:33:40.993Z,25.01
2023-05-29T10:34:40.990Z,25.03
2023-05-29T10:35:40.981Z,25.03
2023-05-29T10:36:40.990Z,25.03
2023-05-29T10:37:40.985Z,25.04
2023-05-29T10:38:41.002Z,25.04
2023-05-29T10:39:40.980Z,25.03
2023-05-29T10:40:40.977Z,25.04
2023-05-29T10:41:40.998Z,25.04
2023-05-29T10:42:40.983Z,25.03
2023-05-29T10:43:40.989Z,25.03
2023-05-29T10:44:40.966Z,25.04
2023-05-29T10:45:40.958Z,25.03
2023-05-29T10:46:40.955Z,25.04
2023-05-29T10:47:40.945Z,25.04
2023-05-29T10:48:40.864Z,25.04
2023-05-29T10:49:40.831Z,25.03
2023-05-29T10:50:40.793Z,25.04
2023-05-29T10:51:40.764Z,25.04
2023-05-29T10:52:40.744Z,25.05
2023-05-29T10:53:40.729Z,25.05
2023-05-29T10:54:40.690Z,25.04
2023-05-29T10:55:40.664Z,25.05
2023-05-29T10:56:40.633Z,25.05
2023-05-29T10:57:40.613Z,25.05
2023-05-29T10:58:40.597Z,25.05
2023-05-29T10:59:40.554Z,25.05
2023-05-29T11:00:40.527Z,25.06
2023-05-29T11:01:40.527Z,25.07
2023-05-29T11:02:40.511Z,25.07
2023-05-29T11:03:40.488Z,25.07
2023-05-29T11:04:40.421Z,25.07
2023-05-29T11:05:40.379Z,25.08
2023-05-29T11:06:40.374Z,25.08
2023-05-29T11:07:40.324Z,25.09
2023-05-29T11:08:40.307Z,25.09
2023-05-29T11:09:40.249Z,25.10
2023-05-29T11:10:40.234Z,25.11
2023-05-29T11:11:40.193Z,25.13
2023-05-29T11:12:40.155Z,25.13
2023-05-29T11:13:40.142Z,25.15
2023-05-29T11:14:40.114Z,25.16
2023-05-29T11:15:40.109Z,25.17
2023-05-29T11:16:40.052Z,25.18
2023-05-29T11:17:40.131Z,25.19
2023-05-29T11:18:40.017Z,25.19
2023-05-29T11:19:39.963Z,25.20
2023-05-29T11:20:39.999Z,25.20
2023-05-29T11:21:39.894Z,25.21
2023-05-29T11:22:39.859Z,25.22
2023-05-29T11:23:39.855Z,25.23
2023-05-29T11:24:39.813Z,25.23
2023-05-29T11:25:39.789Z,25.24
2023-05-29T11:26:39.783Z,25.25
2023-05-29T11:27:39.723Z,25.26
2023-05-29T11:28:39.700Z,25.25
2023-05-29T11:29:39.662Z,25.26
2023-05-29T11:30:39.635Z,25.25
2023-05-29T11:31:39.715Z,25.26
2023-05-29T11:32:39.614Z,25.25
2023-05-29T11:33:39.537Z,25.26
2023-05-29T11:34:39.507Z,25.26
2023-05-29T11:35:39.484Z,25.26
2023-05-29T11:36:39.458Z,25.26
2023-05-29T11:37:39.435Z,25.26
2023-05-29T11:38:39.406Z,25.26
2023-05-29T11:39:39.469Z,25.27
2023-05-29T11:40:39.373Z,25.28
2023-05-29T11:41:39.335Z,25.30
2023-05-29T11:42:39.314Z,25.31
2023-05-29T11:43:39.296Z,25.32
2023-05-29T11:44:39.263Z,25.32
2023-05-29T11:45:39.230Z,25.32
2023-05-29T11:46:39.202Z,25.31
2023-05-29T11:47:39.223Z,25.31
2023-05-29T11:48:39.155Z,25.31
2023-05-29T11:49:39.133Z,25.31
2023-05-29T11:50:39.114Z,25.32
2023-05-29T11:51:39.074Z,25.31
2023-05-29T11:52:39.057Z,25.32
2023-05-29T11:53:39.028Z,25.31
2023-05-29T11:54:39.010Z,25.31
2023-05-29T11:55:39.007Z,25.31
2023-05-29T11:56:38.953Z,25.30
2023-05-29T11:57:38.925Z,25.30
2023-05-29T11:58:38.909Z,25.31
2023-05-29T11:59:38.900Z,25.31
2023-05-29T12:00:38.875Z,25.30
2023-05-29T12:01:38.834Z,25.31
2023-05-29T12:02:38.880Z,25.32
2023-05-29T12:03:38.767Z,25.34
2023-05-29T12:04:38.735Z,25.35
2023-05-29T12:05:38.750Z,25.35
2023-05-29T12:06:38.683Z,25.36
2023-05-29T12:07:38.665Z,25.37
2023-05-29T12:08:38.635Z,25.38
2023-05-29T12:09:38.640Z,25.38
2023-05-29T12:10:38.584Z,25.38
2023-05-29T12:11:38.561Z,25.37
2023-05-29T12:12:38.546Z,25.37
2023-05-29T12:13:38.559Z,25.37
2023-05-29T12:15:26.815Z,25.32
2023-05-29T12:16:26.874Z,25.34
2023-05-29T12:17:26.829Z,25.35
2023-05-29T12:18:26.806Z,25.37
2023-05-29T12:19:26.824Z,25.39
2023-05-29T12:20:26.847Z,25.40
2023-05-29T12:21:26.808Z,25.41
2023-05-29T12:22:26.943Z,25.42
2023-05-29T12:23:26.829Z,25.44
2023-05-29T12:24:32.064Z,25.45
2023-05-29T12:25:27.807Z,25.45
2023-05-29T12:26:26.825Z,25.47
2023-05-29T12:27:26.831Z,25.47
2023-05-29T12:28:26.834Z,25.49
2023-05-29T12:29:26.832Z,25.49
2023-05-29T12:30:32.912Z,25.50
2023-05-29T12:31:27.884Z,25.51
2023-05-29T12:32:26.940Z,25.52
2023-05-29T12:33:26.868Z,25.53
2023-05-29T12:34:26.865Z,25.54
2023-05-29T12:35:26.852Z,25.55
2023-05-29T12:36:26.868Z,25.56
2023-05-29T12:37:26.872Z,25.57
2023-05-29T12:38:26.891Z,25.58
2023-05-29T12:39:26.890Z,25.59
2023-05-29T12:40:26.940Z,25.60
2023-05-29T12:41:26.935Z,25.62
2023-05-29T12:42:26.985Z,25.63
2023-05-29T12:43:27.053Z,25.64
2023-05-29T12:44:27.109Z,25.65
2023-05-29T12:45:27.156Z,25.66
2023-05-29T12:46:27.255Z,25.67
2023-05-29T12:47:27.322Z,25.68
2023-05-29T12:48:27.335Z,25.70
2023-05-29T12:49:27.371Z,25.70
2023-05-29T12:50:27.422Z,25.71
2023-05-29T12:51:27.552Z,25.72
2023-05-29T12:52:27.528Z,25.73
2023-05-29T12:53:27.578Z,25.74
2023-05-29T12:54:27.618Z,25.76